sensor_id;sensor_type;location;lat;lon;timestamp;pressure;altitude;pressure_sealevel;temperature;humidity
6150;BME280;3106;42.670;23.318;2022-09-20T00:01:03;94485.47;;;10.86;87.84
6150;BME280;3106;42.670;23.318;2022-09-20T00:03:30;94478.81;;;10.80;88.24
6150;BME280;3106;42.670;23.318;2022-09-20T00:05:59;94514.63;;;10.91;88.36
6150;BME280;3106;42.670;23.318;2022-09-20T00:08:27;94518.25;;;10.83;88.18
6150;BME280;3106;42.670;23.318;2022-09-20T00:10:58;94504.00;;;10.79;87.81
6150;BME280;3106;42.670;23.318;2022-09-20T00:13:27;94484.00;;;10.61;87.50
6150;BME280;3106;42.670;23.318;2022-09-20T00:15:54;94467.56;;;10.47;87.61
6150;BME280;3106;42.670;23.318;2022-09-20T00:18:21;94498.78;;;10.70;87.49
6150;BME280;3106;42.670;23.318;2022-09-20T00:20:49;94474.78;;;10.58;87.13
6150;BME280;3106;42.670;23.318;2022-09-20T00:23:16;94502.88;;;10.80;86.95
6150;BME280;3106;42.670;23.318;2022-09-20T00:25:44;94517.13;;;10.84;87.01
6150;BME280;3106;42.670;23.318;2022-09-20T00:28:13;94490.91;;;10.62;87.99
6150;BME280;3106;42.670;23.318;2022-09-20T00:30:39;94524.97;;;10.77;87.96
6150;BME280;3106;42.670;23.318;2022-09-20T00:33:06;94518.06;;;10.76;88.14
6150;BME280;3106;42.670;23.318;2022-09-20T00:35:33;94500.91;;;10.65;87.66
6150;BME280;3106;42.670;23.318;2022-09-20T00:37:59;94503.34;;;10.70;88.16
6150;BME280;3106;42.670;23.318;2022-09-20T00:40:26;94494.63;;;10.57;87.76
6150;BME280;3106;42.670;23.318;2022-09-20T00:42:53;94516.38;;;10.71;87.83
6150;BME280;3106;42.670;23.318;2022-09-20T00:45:23;94500.47;;;10.63;87.45
6150;BME280;3106;42.670;23.318;2022-09-20T00:47:54;94516.28;;;10.68;88.06
6150;BME280;3106;42.670;23.318;2022-09-20T00:50:27;94480.06;;;10.43;88.26
6150;BME280;3106;42.670;23.318;2022-09-20T00:53:01;94471.75;;;10.33;88.18
6150;BME280;3106;42.670;23.318;2022-09-20T00:55:30;94525.91;;;10.57;88.11
6150;BME280;3106;42.670;23.318;2022-09-20T00:57:58;94480.22;;;10.23;88.59
6150;BME280;3106;42.670;23.318;2022-09-20T01:00:27;94535.78;;;10.56;88.19
6150;BME280;3106;42.670;23.318;2022-09-20T01:02:57;94502.44;;;10.39;87.68
6150;BME280;3106;42.670;23.318;2022-09-20T01:05:26;94495.88;;;10.36;86.16
6150;BME280;3106;42.670;23.318;2022-09-20T01:08:08;94499.50;;;10.55;85.90
6150;BME280;3106;42.670;23.318;2022-09-20T01:10:36;94506.06;;;10.58;85.44
6150;BME280;3106;42.670;23.318;2022-09-20T01:13:04;94514.63;;;10.63;85.65
6150;BME280;3106;42.670;23.318;2022-09-20T01:15:33;94512.97;;;10.59;84.46
6150;BME280;3106;42.670;23.318;2022-09-20T01:18:02;94515.84;;;10.66;84.41
6150;BME280;3106;42.670;23.318;2022-09-20T01:20:32;94510.88;;;10.52;84.66
6150;BME280;3106;42.670;23.318;2022-09-20T01:23:16;94515.44;;;10.52;84.34
6150;BME280;3106;42.670;23.318;2022-09-20T01:26:03;94488.53;;;10.33;84.69
6150;BME280;3106;42.670;23.318;2022-09-20T01:28:37;94488.53;;;10.33;83.93
6150;BME280;3106;42.670;23.318;2022-09-20T01:31:09;94507.00;;;10.50;83.93
6150;BME280;3106;42.670;23.318;2022-09-20T01:33:43;94497.78;;;10.36;83.76
6150;BME280;3106;42.670;23.318;2022-09-20T01:36:17;94502.00;;;10.37;83.88
6150;BME280;3106;42.670;23.318;2022-09-20T01:38:53;94501.00;;;10.41;83.62
6150;BME280;3106;42.670;23.318;2022-09-20T01:41:24;94489.81;;;10.24;84.45
6150;BME280;3106;42.670;23.318;2022-09-20T01:43:58;94504.38;;;10.26;84.76
6150;BME280;3106;42.670;23.318;2022-09-20T01:46:32;94510.06;;;10.25;85.71
6150;BME280;3106;42.670;23.318;2022-09-20T01:49:09;94501.53;;;10.07;86.22
6150;BME280;3106;42.670;23.318;2022-09-20T01:58:18;94516.75;;;10.07;86.57
6150;BME280;3106;42.670;23.318;2022-09-20T02:01:12;94480.03;;;9.80;87.92
6150;BME280;3106;42.670;23.318;2022-09-20T02:04:08;94515.94;;;9.94;87.98
6150;BME280;3106;42.670;23.318;2022-09-20T02:06:46;94491.16;;;9.82;87.71
6150;BME280;3106;42.670;23.318;2022-09-20T02:18:44;94486.19;;;9.68;89.50
6150;BME280;3106;42.670;23.318;2022-09-20T02:21:24;94475.47;;;9.56;89.29
6150;BME280;3106;42.670;23.318;2022-09-20T02:24:02;94476.59;;;9.55;89.16
6150;BME280;3106;42.670;23.318;2022-09-20T02:26:40;94458.81;;;9.47;89.26
6150;BME280;3106;42.670;23.318;2022-09-20T02:29:18;94470.72;;;9.50;89.03
6150;BME280;3106;42.670;23.318;2022-09-20T02:32:00;94489.63;;;9.57;89.28
6150;BME280;3106;42.670;23.318;2022-09-20T02:34:53;94485.25;;;9.64;89.31
6150;BME280;3106;42.670;23.318;2022-09-20T02:37:50;94469.78;;;9.46;89.54
6150;BME280;3106;42.670;23.318;2022-09-20T02:40:31;94468.47;;;9.40;89.81
6150;BME280;3106;42.670;23.318;2022-09-20T02:43:09;94486.59;;;9.46;90.72
6150;BME280;3106;42.670;23.318;2022-09-20T02:45:44;94493.81;;;9.46;90.87
6150;BME280;3106;42.670;23.318;2022-09-20T02:48:20;94514.84;;;9.47;92.12
6150;BME280;3106;42.670;23.318;2022-09-20T02:50:58;94487.13;;;9.28;92.80
6150;BME280;3106;42.670;23.318;2022-09-20T02:53:36;94498.16;;;9.38;93.61
6150;BME280;3106;42.670;23.318;2022-09-20T02:56:12;94497.38;;;9.26;93.64
6150;BME280;3106;42.670;23.318;2022-09-20T02:58:50;94511.38;;;9.35;94.45
6150;BME280;3106;42.670;23.318;2022-09-20T03:01:30;94492.69;;;9.23;94.62
6150;BME280;3106;42.670;23.318;2022-09-20T03:04:13;94507.66;;;9.15;95.00
6150;BME280;3106;42.670;23.318;2022-09-20T03:06:49;94490.34;;;9.09;95.29
6150;BME280;3106;42.670;23.318;2022-09-20T03:09:26;94486.44;;;9.07;95.14
6150;BME280;3106;42.670;23.318;2022-09-20T03:12:01;94511.16;;;9.28;95.23
6150;BME280;3106;42.670;23.318;2022-09-20T03:14:35;94494.56;;;9.10;94.90
6150;BME280;3106;42.670;23.318;2022-09-20T03:17:12;94520.03;;;9.20;95.02
6150;BME280;3106;42.670;23.318;2022-09-20T03:20:02;94527.81;;;9.25;95.18
6150;BME280;3106;42.670;23.318;2022-09-20T03:22:51;94541.91;;;9.25;95.26
6150;BME280;3106;42.670;23.318;2022-09-20T03:25:38;94519.44;;;9.14;94.97
6150;BME280;3106;42.670;23.318;2022-09-20T03:28:18;94514.84;;;9.03;95.13
6150;BME280;3106;42.670;23.318;2022-09-20T03:30:59;94493.38;;;8.88;95.23
6150;BME280;3106;42.670;23.318;2022-09-20T03:33:40;94507.88;;;8.98;95.09
6150;BME280;3106;42.670;23.318;2022-09-20T03:36:31;94548.47;;;9.16;95.05
6150;BME280;3106;42.670;23.318;2022-09-20T03:39:14;94541.69;;;9.18;95.05
6150;BME280;3106;42.670;23.318;2022-09-20T03:41:58;94496.38;;;8.86;94.93
6150;BME280;3106;42.670;23.318;2022-09-20T03:44:43;94546.56;;;9.16;94.61
6150;BME280;3106;42.670;23.318;2022-09-20T03:47:26;94538.34;;;9.09;94.76
6150;BME280;3106;42.670;23.318;2022-09-20T03:50:09;94504.81;;;8.88;94.29
6150;BME280;3106;42.670;23.318;2022-09-20T03:52:58;94532.34;;;9.12;94.00
6150;BME280;3106;42.670;23.318;2022-09-20T03:58:45;94509.81;;;8.90;93.26
6150;BME280;3106;42.670;23.318;2022-09-20T04:01:31;94535.97;;;9.08;93.53
6150;BME280;3106;42.670;23.318;2022-09-20T04:04:11;94520.63;;;8.93;93.15
6150;BME280;3106;42.670;23.318;2022-09-20T04:06:51;94517.28;;;8.96;93.23
6150;BME280;3106;42.670;23.318;2022-09-20T04:09:51;94538.41;;;9.01;93.15
6150;BME280;3106;42.670;23.318;2022-09-20T04:12:28;94531.72;;;8.95;93.27
6150;BME280;3106;42.670;23.318;2022-09-20T04:15:07;94570.13;;;9.14;93.65
6150;BME280;3106;42.670;23.318;2022-09-20T04:17:48;94533.50;;;8.91;93.04
6150;BME280;3106;42.670;23.318;2022-09-20T04:20:24;94566.09;;;9.08;93.71
6150;BME280;3106;42.670;23.318;2022-09-20T04:22:55;94536.63;;;8.93;93.16
6150;BME280;3106;42.670;23.318;2022-09-20T04:25:28;94568.78;;;9.08;93.66
6150;BME280;3106;42.670;23.318;2022-09-20T04:28:08;94573.59;;;9.15;93.73
6150;BME280;3106;42.670;23.318;2022-09-20T04:30:39;94559.97;;;9.08;94.12
6150;BME280;3106;42.670;23.318;2022-09-20T04:33:17;94545.28;;;8.90;94.11
6150;BME280;3106;42.670;23.318;2022-09-20T04:35:54;94577.25;;;9.22;94.03
6150;BME280;3106;42.670;23.318;2022-09-20T04:38:46;94582.59;;;9.22;93.99
6150;BME280;3106;42.670;23.318;2022-09-20T04:41:35;94555.06;;;8.98;94.76
6150;BME280;3106;42.670;23.318;2022-09-20T04:44:29;94567.47;;;9.14;94.62
6150;BME280;3106;42.670;23.318;2022-09-20T04:50:26;94572.78;;;9.14;94.28
6150;BME280;3106;42.670;23.318;2022-09-20T04:53:35;94566.13;;;9.20;94.13
6150;BME280;3106;42.670;23.318;2022-09-20T04:56:18;94562.81;;;9.23;93.35
6150;BME280;3106;42.670;23.318;2022-09-20T04:58:48;94553.25;;;9.22;93.04
6150;BME280;3106;42.670;23.318;2022-09-20T05:13:57;94577.00;;;12.42;78.32
6150;BME280;3106;42.670;23.318;2022-09-20T05:16:38;94580.84;;;12.76;76.83
6150;BME280;3106;42.670;23.318;2022-09-20T05:19:24;94610.84;;;13.16;74.80
6150;BME280;3106;42.670;23.318;2022-09-20T05:22:12;94581.81;;;13.02;74.18
6150;BME280;3106;42.670;23.318;2022-09-20T05:25:01;94607.00;;;13.36;73.88
6150;BME280;3106;42.670;23.318;2022-09-20T05:27:38;94552.34;;;13.06;73.52
6150;BME280;3106;42.670;23.318;2022-09-20T05:30:24;94585.56;;;13.58;71.96
6150;BME280;3106;42.670;23.318;2022-09-20T05:33:13;94560.41;;;14.11;69.89
6150;BME280;3106;42.670;23.318;2022-09-20T05:35:51;94590.41;;;14.35;68.43
6150;BME280;3106;42.670;23.318;2022-09-20T05:38:31;94590.69;;;13.85;70.38
6150;BME280;3106;42.670;23.318;2022-09-20T05:41:09;94584.75;;;13.99;69.64
6150;BME280;3106;42.670;23.318;2022-09-20T05:43:49;94615.75;;;14.34;69.14
6150;BME280;3106;42.670;23.318;2022-09-20T05:46:34;94603.97;;;14.20;69.79
6150;BME280;3106;42.670;23.318;2022-09-20T05:49:11;94589.47;;;13.60;71.29
6150;BME280;3106;42.670;23.318;2022-09-20T05:51:56;94594.09;;;13.03;74.64
6150;BME280;3106;42.670;23.318;2022-09-20T05:54:42;94590.00;;;12.25;77.45
6150;BME280;3106;42.670;23.318;2022-09-20T05:57:20;94583.47;;;11.92;78.42
6150;BME280;3106;42.670;23.318;2022-09-20T05:59:59;94596.59;;;11.81;79.06
6150;BME280;3106;42.670;23.318;2022-09-20T06:02:34;94594.19;;;11.76;79.98
6150;BME280;3106;42.670;23.318;2022-09-20T06:05:10;94586.72;;;11.70;79.40
6150;BME280;3106;42.670;23.318;2022-09-20T06:08:09;94599.84;;;11.59;80.78
6150;BME280;3106;42.670;23.318;2022-09-20T06:16:39;94598.88;;;11.52;81.26
6150;BME280;3106;42.670;23.318;2022-09-20T06:19:17;94602.88;;;11.58;81.65
6150;BME280;3106;42.670;23.318;2022-09-20T06:21:50;94608.41;;;11.65;81.57
6150;BME280;3106;42.670;23.318;2022-09-20T06:24:30;94589.81;;;11.56;81.46
6150;BME280;3106;42.670;23.318;2022-09-20T06:27:03;94589.41;;;11.70;81.30
6150;BME280;3106;42.670;23.318;2022-09-20T06:29:35;94579.13;;;11.87;80.66
6150;BME280;3106;42.670;23.318;2022-09-20T06:32:04;94592.19;;;11.73;81.17
6150;BME280;3106;42.670;23.318;2022-09-20T06:34:34;94588.13;;;11.79;81.61
6150;BME280;3106;42.670;23.318;2022-09-20T06:37:09;94594.09;;;12.03;79.90
6150;BME280;3106;42.670;23.318;2022-09-20T06:40:02;94596.06;;;11.76;81.31
6150;BME280;3106;42.670;23.318;2022-09-20T06:42:50;94573.41;;;11.58;82.35
6150;BME280;3106;42.670;23.318;2022-09-20T06:45:17;94600.94;;;11.86;81.80
6150;BME280;3106;42.670;23.318;2022-09-20T06:47:47;94606.25;;;12.01;81.27
6150;BME280;3106;42.670;23.318;2022-09-20T06:50:16;94602.66;;;12.24;80.32
6150;BME280;3106;42.670;23.318;2022-09-20T06:52:44;94595.31;;;12.21;79.23
6150;BME280;3106;42.670;23.318;2022-09-20T06:55:17;94570.16;;;11.95;79.78
6150;BME280;3106;42.670;23.318;2022-09-20T06:57:47;94600.47;;;12.30;78.21
6150;BME280;3106;42.670;23.318;2022-09-20T07:00:16;94589.31;;;12.12;78.42
6150;BME280;3106;42.670;23.318;2022-09-20T07:02:44;94581.22;;;12.09;78.15
6150;BME280;3106;42.670;23.318;2022-09-20T07:05:15;94596.06;;;12.22;78.65
6150;BME280;3106;42.670;23.318;2022-09-20T07:07:46;94591.28;;;12.31;79.06
6150;BME280;3106;42.670;23.318;2022-09-20T07:10:13;94605.59;;;12.69;77.47
6150;BME280;3106;42.670;23.318;2022-09-20T07:12:41;94611.53;;;12.94;75.94
6150;BME280;3106;42.670;23.318;2022-09-20T07:15:09;94605.03;;;12.95;75.63
6150;BME280;3106;42.670;23.318;2022-09-20T07:17:36;94608.69;;;13.06;74.68
6150;BME280;3106;42.670;23.318;2022-09-20T07:20:03;94621.56;;;12.97;74.59
6150;BME280;3106;42.670;23.318;2022-09-20T07:22:32;94616.75;;;12.71;74.05
6150;BME280;3106;42.670;23.318;2022-09-20T07:24:59;94608.72;;;12.71;74.16
6150;BME280;3106;42.670;23.318;2022-09-20T07:27:27;94618.31;;;12.72;73.83
6150;BME280;3106;42.670;23.318;2022-09-20T07:29:55;94609.78;;;12.86;73.69
6150;BME280;3106;42.670;23.318;2022-09-20T07:32:22;94601.59;;;12.94;74.34
6150;BME280;3106;42.670;23.318;2022-09-20T07:34:49;94618.81;;;13.12;72.57
6150;BME280;3106;42.670;23.318;2022-09-20T07:37:16;94618.47;;;13.33;73.32
6150;BME280;3106;42.670;23.318;2022-09-20T07:39:45;94590.69;;;13.06;73.32
6150;BME280;3106;42.670;23.318;2022-09-20T07:42:14;94623.91;;;13.17;71.89
6150;BME280;3106;42.670;23.318;2022-09-20T07:44:41;94605.94;;;13.21;71.46
6150;BME280;3106;42.670;23.318;2022-09-20T07:47:08;94587.38;;;13.32;70.55
6150;BME280;3106;42.670;23.318;2022-09-20T07:49:36;94627.00;;;13.76;70.94
6150;BME280;3106;42.670;23.318;2022-09-20T07:52:03;94604.78;;;13.79;69.36
6150;BME280;3106;42.670;23.318;2022-09-20T07:54:30;94606.59;;;14.16;66.83
6150;BME280;3106;42.670;23.318;2022-09-20T07:56:59;94596.66;;;14.20;66.66
6150;BME280;3106;42.670;23.318;2022-09-20T07:59:26;94611.88;;;14.58;66.50
6150;BME280;3106;42.670;23.318;2022-09-20T08:01:53;94587.16;;;14.49;64.69
6150;BME280;3106;42.670;23.318;2022-09-20T08:04:21;94598.81;;;14.34;64.08
6150;BME280;3106;42.670;23.318;2022-09-20T08:06:48;94583.91;;;14.40;62.13
6150;BME280;3106;42.670;23.318;2022-09-20T08:09:15;94606.81;;;14.53;64.01
6150;BME280;3106;42.670;23.318;2022-09-20T08:11:42;94606.81;;;14.53;65.29
6150;BME280;3106;42.670;23.318;2022-09-20T08:14:13;94616.91;;;14.37;61.93
6150;BME280;3106;42.670;23.318;2022-09-20T08:16:42;94598.34;;;14.06;62.61
6150;BME280;3106;42.670;23.318;2022-09-20T08:19:13;94595.22;;;14.49;62.92
6150;BME280;3106;42.670;23.318;2022-09-20T08:21:41;94599.75;;;14.97;62.25
6150;BME280;3106;42.670;23.318;2022-09-20T08:24:08;94604.78;;;15.27;60.86
6150;BME280;3106;42.670;23.318;2022-09-20T08:26:36;94611.09;;;15.38;58.95
6150;BME280;3106;42.670;23.318;2022-09-20T08:29:03;94613.47;;;14.88;60.34
6150;BME280;3106;42.670;23.318;2022-09-20T08:31:33;94612.19;;;14.79;57.80
6150;BME280;3106;42.670;23.318;2022-09-20T08:34:01;94602.13;;;14.76;56.37
6150;BME280;3106;42.670;23.318;2022-09-20T08:36:30;94592.66;;;14.85;56.19
6150;BME280;3106;42.670;23.318;2022-09-20T08:38:58;94598.47;;;15.16;56.31
6150;BME280;3106;42.670;23.318;2022-09-20T08:41:28;94595.94;;;15.60;54.65
6150;BME280;3106;42.670;23.318;2022-09-20T08:43:58;94588.88;;;15.85;52.71
6150;BME280;3106;42.670;23.318;2022-09-20T08:46:28;94603.63;;;15.58;54.80
6150;BME280;3106;42.670;23.318;2022-09-20T08:48:57;94571.66;;;15.27;56.33
6150;BME280;3106;42.670;23.318;2022-09-20T08:51:28;94573.69;;;15.66;56.36
6150;BME280;3106;42.670;23.318;2022-09-20T08:53:57;94565.59;;;15.66;54.76
6150;BME280;3106;42.670;23.318;2022-09-20T08:56:26;94569.72;;;15.57;55.71
6150;BME280;3106;42.670;23.318;2022-09-20T08:58:54;94588.72;;;16.07;54.30
6150;BME280;3106;42.670;23.318;2022-09-20T09:01:26;94568.22;;;16.39;51.62
6150;BME280;3106;42.670;23.318;2022-09-20T09:04:06;94593.63;;;16.92;50.92
6150;BME280;3106;42.670;23.318;2022-09-20T09:06:37;94567.81;;;16.94;50.05
6150;BME280;3106;42.670;23.318;2022-09-20T09:09:04;94588.13;;;17.39;49.21
6150;BME280;3106;42.670;23.318;2022-09-20T09:11:32;94583.19;;;16.87;50.38
6150;BME280;3106;42.670;23.318;2022-09-20T09:14:09;94574.22;;;16.72;51.43
6150;BME280;3106;42.670;23.318;2022-09-20T09:16:51;94570.19;;;17.10;49.86
6150;BME280;3106;42.670;23.318;2022-09-20T09:19:28;94554.00;;;17.17;50.58
6150;BME280;3106;42.670;23.318;2022-09-20T09:21:57;94533.38;;;16.81;51.59
6150;BME280;3106;42.670;23.318;2022-09-20T09:24:25;94566.19;;;16.83;52.62
6150;BME280;3106;42.670;23.318;2022-09-20T09:27:05;94542.94;;;16.61;53.03
6150;BME280;3106;42.670;23.318;2022-09-20T09:29:32;94551.81;;;16.18;52.86
6150;BME280;3106;42.670;23.318;2022-09-20T09:32:21;94550.25;;;16.17;53.42
6150;BME280;3106;42.670;23.318;2022-09-20T09:34:50;94553.78;;;15.81;53.21
6150;BME280;3106;42.670;23.318;2022-09-20T09:38:04;94547.81;;;15.62;54.43
6150;BME280;3106;42.670;23.318;2022-09-20T09:40:29;94541.97;;;15.53;55.53
6150;BME280;3106;42.670;23.318;2022-09-20T09:42:58;94518.22;;;15.29;55.99
6150;BME280;3106;42.670;23.318;2022-09-20T09:45:29;94502.19;;;15.39;55.46
6150;BME280;3106;42.670;23.318;2022-09-20T09:47:58;94536.56;;;15.53;55.02
6150;BME280;3106;42.670;23.318;2022-09-20T09:50:32;94541.50;;;15.44;54.74
6150;BME280;3106;42.670;23.318;2022-09-20T09:53:04;94549.16;;;15.42;54.28
6150;BME280;3106;42.670;23.318;2022-09-20T09:58:56;94551.19;;;15.88;53.64
6150;BME280;3106;42.670;23.318;2022-09-20T10:01:33;94524.59;;;15.87;53.34
6150;BME280;3106;42.670;23.318;2022-09-20T10:04:12;94531.91;;;16.33;49.82
6150;BME280;3106;42.670;23.318;2022-09-20T10:06:47;94486.59;;;16.60;48.92
6150;BME280;3106;42.670;23.318;2022-09-20T10:09:29;94511.41;;;16.82;47.07
6150;BME280;3106;42.670;23.318;2022-09-20T10:12:12;94537.91;;;16.63;49.05
6150;BME280;3106;42.670;23.318;2022-09-20T10:14:51;94496.66;;;16.66;47.60
6150;BME280;3106;42.670;23.318;2022-09-20T10:17:37;94529.88;;;17.66;45.41
6150;BME280;3106;42.670;23.318;2022-09-20T10:20:39;94532.78;;;17.12;47.21
6150;BME280;3106;42.670;23.318;2022-09-20T10:23:25;94536.25;;;16.45;49.35
6150;BME280;3106;42.670;23.318;2022-09-20T10:26:09;94537.75;;;15.95;51.07
6150;BME280;3106;42.670;23.318;2022-09-20T10:28:53;94534.09;;;15.74;51.55
6150;BME280;3106;42.670;23.318;2022-09-20T10:31:39;94517.03;;;16.06;49.53
6150;BME280;3106;42.670;23.318;2022-09-20T10:34:27;94530.47;;;16.43;48.43
6150;BME280;3106;42.670;23.318;2022-09-20T10:37:00;94526.94;;;17.03;46.25
6150;BME280;3106;42.670;23.318;2022-09-20T10:39:31;94501.91;;;17.13;45.15
6150;BME280;3106;42.670;23.318;2022-09-20T10:42:06;94522.47;;;17.38;46.25
6150;BME280;3106;42.670;23.318;2022-09-20T10:45:01;94500.69;;;17.00;45.91
6150;BME280;3106;42.670;23.318;2022-09-20T10:47:34;94514.16;;;16.89;45.31
6150;BME280;3106;42.670;23.318;2022-09-20T10:50:17;94511.56;;;17.17;43.78
6150;BME280;3106;42.670;23.318;2022-09-20T10:52:57;94505.31;;;16.99;43.14
6150;BME280;3106;42.670;23.318;2022-09-20T10:55:36;94502.25;;;17.04;44.45
6150;BME280;3106;42.670;23.318;2022-09-20T10:58:37;94520.41;;;17.11;45.49
6150;BME280;3106;42.670;23.318;2022-09-20T11:01:15;94534.25;;;17.02;45.75
6150;BME280;3106;42.670;23.318;2022-09-20T11:06:49;94506.72;;;16.72;45.43
6150;BME280;3106;42.670;23.318;2022-09-20T11:09:23;94510.81;;;16.46;46.98
6150;BME280;3106;42.670;23.318;2022-09-20T11:12:05;94505.13;;;16.61;47.66
6150;BME280;3106;42.670;23.318;2022-09-20T11:14:39;94498.66;;;16.76;44.63
6150;BME280;3106;42.670;23.318;2022-09-20T11:17:11;94510.28;;;16.94;44.95
6150;BME280;3106;42.670;23.318;2022-09-20T11:19:46;94500.16;;;16.70;44.11
6150;BME280;3106;42.670;23.318;2022-09-20T11:22:20;94485.78;;;16.52;44.63
6150;BME280;3106;42.670;23.318;2022-09-20T11:24:51;94481.63;;;16.65;43.75
6150;BME280;3106;42.670;23.318;2022-09-20T11:27:26;94490.47;;;16.62;44.02
6150;BME280;3106;42.670;23.318;2022-09-20T11:30:00;94501.22;;;16.55;45.26
6150;BME280;3106;42.670;23.318;2022-09-20T11:32:33;94505.81;;;16.51;46.02
6150;BME280;3106;42.670;23.318;2022-09-20T11:35:19;94489.63;;;16.51;46.74
6150;BME280;3106;42.670;23.318;2022-09-20T11:37:52;94498.97;;;16.67;46.54
6150;BME280;3106;42.670;23.318;2022-09-20T11:40:25;94501.69;;;16.67;47.10
6150;BME280;3106;42.670;23.318;2022-09-20T11:42:56;94488.06;;;16.47;47.08
6150;BME280;3106;42.670;23.318;2022-09-20T11:45:25;94489.28;;;16.56;47.48
6150;BME280;3106;42.670;23.318;2022-09-20T11:47:59;94492.97;;;17.05;46.29
6150;BME280;3106;42.670;23.318;2022-09-20T11:53:39;94459.00;;;16.26;46.33
6150;BME280;3106;42.670;23.318;2022-09-20T11:56:13;94474.44;;;16.33;48.24
6150;BME280;3106;42.670;23.318;2022-09-20T11:58:48;94473.78;;;16.46;47.00
6150;BME280;3106;42.670;23.318;2022-09-20T12:01:24;94465.78;;;16.64;46.89
6150;BME280;3106;42.670;23.318;2022-09-20T12:03:54;94451.25;;;16.85;45.52
6150;BME280;3106;42.670;23.318;2022-09-20T12:06:26;94484.50;;;17.07;44.27
6150;BME280;3106;42.670;23.318;2022-09-20T12:08:54;94477.16;;;16.97;44.36
6150;BME280;3106;42.670;23.318;2022-09-20T12:11:28;94474.09;;;17.12;43.38
6150;BME280;3106;42.670;23.318;2022-09-20T12:14:02;94475.28;;;17.22;43.88
6150;BME280;3106;42.670;23.318;2022-09-20T12:16:39;94468.34;;;17.21;44.81
6150;BME280;3106;42.670;23.318;2022-09-20T12:19:12;94452.88;;;17.18;43.88
6150;BME280;3106;42.670;23.318;2022-09-20T12:22:25;94469.09;;;17.11;44.40
6150;BME280;3106;42.670;23.318;2022-09-20T12:25:34;94476.00;;;16.98;44.75
6150;BME280;3106;42.670;23.318;2022-09-20T12:28:02;94459.34;;;16.89;44.39
6150;BME280;3106;42.670;23.318;2022-09-20T12:30:36;94470.63;;;17.05;43.99
6150;BME280;3106;42.670;23.318;2022-09-20T12:33:03;94464.47;;;17.18;43.17
6150;BME280;3106;42.670;23.318;2022-09-20T12:35:58;94459.47;;;17.27;42.35
6150;BME280;3106;42.670;23.318;2022-09-20T12:38:47;94466.78;;;17.16;43.36
6150;BME280;3106;42.670;23.318;2022-09-20T12:41:17;94463.25;;;16.98;44.39
6150;BME280;3106;42.670;23.318;2022-09-20T12:44:01;94449.59;;;16.64;45.11
6150;BME280;3106;42.670;23.318;2022-09-20T12:46:36;94466.06;;;16.41;46.09
6150;BME280;3106;42.670;23.318;2022-09-20T12:49:37;94470.28;;;16.39;46.03
6150;BME280;3106;42.670;23.318;2022-09-20T12:52:32;94474.31;;;16.69;44.79
6150;BME280;3106;42.670;23.318;2022-09-20T12:55:36;94458.19;;;16.86;44.06
6150;BME280;3106;42.670;23.318;2022-09-20T12:58:16;94434.22;;;16.71;44.51
6150;BME280;3106;42.670;23.318;2022-09-20T13:00:46;94453.56;;;16.94;43.03
6150;BME280;3106;42.670;23.318;2022-09-20T13:03:27;94438.56;;;17.03;42.43
6150;BME280;3106;42.670;23.318;2022-09-20T13:06:22;94457.16;;;17.22;41.86
6150;BME280;3106;42.670;23.318;2022-09-20T13:08:54;94461.47;;;17.34;41.17
6150;BME280;3106;42.670;23.318;2022-09-20T13:11:24;94437.50;;;17.32;40.15
6150;BME280;3106;42.670;23.318;2022-09-20T13:13:55;94436.38;;;17.51;40.23
6150;BME280;3106;42.670;23.318;2022-09-20T13:16:28;94451.47;;;17.73;40.39
6150;BME280;3106;42.670;23.318;2022-09-20T13:19:01;94463.81;;;17.53;40.57
6150;BME280;3106;42.670;23.318;2022-09-20T13:21:31;94427.44;;;17.15;40.97
6150;BME280;3106;42.670;23.318;2022-09-20T13:23:59;94461.75;;;17.08;41.02
6150;BME280;3106;42.670;23.318;2022-09-20T13:26:32;94431.50;;;16.67;41.39
6150;BME280;3106;42.670;23.318;2022-09-20T13:29:00;94452.38;;;16.81;41.87
6150;BME280;3106;42.670;23.318;2022-09-20T13:31:31;94448.97;;;16.98;40.99
6150;BME280;3106;42.670;23.318;2022-09-20T13:34:18;94435.03;;;16.82;41.49
6150;BME280;3106;42.670;23.318;2022-09-20T13:36:46;94466.31;;;16.93;40.68
6150;BME280;3106;42.670;23.318;2022-09-20T13:39:32;94435.00;;;16.75;41.34
6150;BME280;3106;42.670;23.318;2022-09-20T13:42:05;94453.44;;;16.63;40.71
6150;BME280;3106;42.670;23.318;2022-09-20T13:44:37;94455.81;;;16.71;41.84
6150;BME280;3106;42.670;23.318;2022-09-20T13:47:21;94417.63;;;16.69;41.35
6150;BME280;3106;42.670;23.318;2022-09-20T13:49:50;94455.94;;;16.99;40.52
6150;BME280;3106;42.670;23.318;2022-09-20T13:52:24;94462.50;;;17.05;39.49
6150;BME280;3106;42.670;23.318;2022-09-20T13:54:52;94451.75;;;17.15;38.73
6150;BME280;3106;42.670;23.318;2022-09-20T13:57:21;94452.41;;;16.95;38.47
6150;BME280;3106;42.670;23.318;2022-09-20T13:59:49;94437.66;;;16.65;40.04
6150;BME280;3106;42.670;23.318;2022-09-20T14:02:21;94455.44;;;16.76;40.98
6150;BME280;3106;42.670;23.318;2022-09-20T14:04:59;94434.94;;;16.65;41.46
6150;BME280;3106;42.670;23.318;2022-09-20T14:07:28;94448.47;;;16.71;42.16
6150;BME280;3106;42.670;23.318;2022-09-20T14:09:55;94417.88;;;16.43;41.59
6150;BME280;3106;42.670;23.318;2022-09-20T14:12:24;94417.16;;;16.50;42.25
6150;BME280;3106;42.670;23.318;2022-09-20T14:14:52;94440.41;;;16.75;43.64
6150;BME280;3106;42.670;23.318;2022-09-20T14:17:21;94448.06;;;16.66;45.30
6150;BME280;3106;42.670;23.318;2022-09-20T14:19:51;94424.72;;;16.30;46.00
6150;BME280;3106;42.670;23.318;2022-09-20T14:22:23;94420.91;;;16.35;46.55
6150;BME280;3106;42.670;23.318;2022-09-20T14:25:01;94442.56;;;16.45;46.76
6150;BME280;3106;42.670;23.318;2022-09-20T14:27:28;94429.03;;;16.38;47.23
6150;BME280;3106;42.670;23.318;2022-09-20T14:29:56;94441.53;;;16.67;47.94
6150;BME280;3106;42.670;23.318;2022-09-20T14:32:29;94440.44;;;16.78;48.14
6150;BME280;3106;42.670;23.318;2022-09-20T14:35:03;94405.66;;;16.63;47.61
6150;BME280;3106;42.670;23.318;2022-09-20T14:37:34;94407.56;;;16.59;47.50
6150;BME280;3106;42.670;23.318;2022-09-20T14:40:16;94405.13;;;16.37;46.29
6150;BME280;3106;42.670;23.318;2022-09-20T14:42:46;94441.75;;;16.38;46.82
6150;BME280;3106;42.670;23.318;2022-09-20T14:45:21;94429.31;;;16.23;48.58
6150;BME280;3106;42.670;23.318;2022-09-20T14:47:53;94442.34;;;16.14;48.57